sensor_id;sensor_type;location;lat;lon;timestamp;P1;durP1;ratioP1;P2;durP2;ratioP2
14933;SDS011;7560;51.364;12.384;2022-08-19T00:03:41;34.47;;;25.20;;
14933;SDS011;7560;51.364;12.384;2022-08-19T00:08:42;34.65;;;24.83;;
14933;SDS011;7560;51.364;12.384;2022-08-19T00:13:44;35.45;;;23.85;;
14933;SDS011;7560;51.364;12.384;2022-08-19T00:18:49;34.97;;;24.45;;
14933;SDS011;7560;51.364;12.384;2022-08-19T00:23:51;35.25;;;25.20;;
14933;SDS011;7560;51.364;12.384;2022-08-19T00:28:54;34.35;;;24.70;;
14933;SDS011;7560;51.364;12.384;2022-08-19T00:33:56;39.17;;;25.88;;
14933;SDS011;7560;51.364;12.384;2022-08-19T00:38:58;36.92;;;26.65;;
14933;SDS011;7560;51.364;12.384;2022-08-19T00:49:10;36.65;;;25.48;;
14933;SDS011;7560;51.364;12.384;2022-08-19T00:54:16;40.75;;;26.67;;
14933;SDS011;7560;51.364;12.384;2022-08-19T00:59:31;39.38;;;26.38;;
14933;SDS011;7560;51.364;12.384;2022-08-19T01:05:03;39.75;;;25.60;;
14933;SDS011;7560;51.364;12.384;2022-08-19T01:10:11;40.95;;;28.25;;
14933;SDS011;7560;51.364;12.384;2022-08-19T01:15:17;42.60;;;27.85;;
14933;SDS011;7560;51.364;12.384;2022-08-19T01:20:22;46.50;;;29.80;;
14933;SDS011;7560;51.364;12.384;2022-08-19T01:25:36;48.42;;;30.10;;
14933;SDS011;7560;51.364;12.384;2022-08-19T01:30:42;46.28;;;30.05;;
14933;SDS011;7560;51.364;12.384;2022-08-19T01:35:51;48.72;;;30.88;;
14933;SDS011;7560;51.364;12.384;2022-08-19T01:40:53;49.17;;;31.73;;
14933;SDS011;7560;51.364;12.384;2022-08-19T01:45:56;51.15;;;32.25;;
14933;SDS011;7560;51.364;12.384;2022-08-19T01:50:57;54.80;;;33.17;;
14933;SDS011;7560;51.364;12.384;2022-08-19T01:55:59;56.83;;;33.20;;
14933;SDS011;7560;51.364;12.384;2022-08-19T02:01:03;52.35;;;32.85;;
14933;SDS011;7560;51.364;12.384;2022-08-19T02:06:05;55.40;;;33.78;;
14933;SDS011;7560;51.364;12.384;2022-08-19T02:11:07;60.88;;;34.88;;
14933;SDS011;7560;51.364;12.384;2022-08-19T02:16:09;56.50;;;33.75;;
14933;SDS011;7560;51.364;12.384;2022-08-19T02:21:11;53.72;;;33.92;;
14933;SDS011;7560;51.364;12.384;2022-08-19T02:26:14;61.15;;;35.15;;
14933;SDS011;7560;51.364;12.384;2022-08-19T02:31:19;62.88;;;36.28;;
14933;SDS011;7560;51.364;12.384;2022-08-19T02:36:25;61.03;;;36.33;;
14933;SDS011;7560;51.364;12.384;2022-08-19T02:41:31;59.95;;;34.92;;
14933;SDS011;7560;51.364;12.384;2022-08-19T02:46:34;60.08;;;35.05;;
14933;SDS011;7560;51.364;12.384;2022-08-19T02:51:39;55.15;;;34.25;;
14933;SDS011;7560;51.364;12.384;2022-08-19T02:56:45;52.10;;;32.60;;
14933;SDS011;7560;51.364;12.384;2022-08-19T03:01:47;48.75;;;31.27;;
14933;SDS011;7560;51.364;12.384;2022-08-19T03:06:49;49.83;;;31.55;;
14933;SDS011;7560;51.364;12.384;2022-08-19T03:11:51;48.15;;;32.05;;
14933;SDS011;7560;51.364;12.384;2022-08-19T03:16:53;47.17;;;30.63;;
14933;SDS011;7560;51.364;12.384;2022-08-19T03:21:54;42.95;;;29.08;;
14933;SDS011;7560;51.364;12.384;2022-08-19T03:26:56;40.72;;;27.92;;
14933;SDS011;7560;51.364;12.384;2022-08-19T03:32:00;35.78;;;26.00;;
14933;SDS011;7560;51.364;12.384;2022-08-19T03:37:09;36.45;;;25.92;;
14933;SDS011;7560;51.364;12.384;2022-08-19T03:42:13;33.95;;;24.58;;
14933;SDS011;7560;51.364;12.384;2022-08-19T03:47:35;32.47;;;23.85;;
14933;SDS011;7560;51.364;12.384;2022-08-19T03:52:39;30.30;;;23.65;;
14933;SDS011;7560;51.364;12.384;2022-08-19T03:57:46;28.42;;;21.50;;
14933;SDS011;7560;51.364;12.384;2022-08-19T04:02:49;28.42;;;22.17;;
14933;SDS011;7560;51.364;12.384;2022-08-19T04:08:00;26.17;;;20.98;;
14933;SDS011;7560;51.364;12.384;2022-08-19T04:13:03;26.35;;;21.95;;
14933;SDS011;7560;51.364;12.384;2022-08-19T04:18:06;31.48;;;23.90;;
14933;SDS011;7560;51.364;12.384;2022-08-19T04:23:12;36.05;;;26.00;;
14933;SDS011;7560;51.364;12.384;2022-08-19T04:28:15;37.97;;;27.95;;
14933;SDS011;7560;51.364;12.384;2022-08-19T04:33:18;43.83;;;29.35;;
14933;SDS011;7560;51.364;12.384;2022-08-19T04:38:26;40.75;;;28.45;;
14933;SDS011;7560;51.364;12.384;2022-08-19T04:43:29;37.92;;;28.63;;
14933;SDS011;7560;51.364;12.384;2022-08-19T04:48:31;37.28;;;27.35;;
14933;SDS011;7560;51.364;12.384;2022-08-19T04:53:35;39.70;;;29.35;;
14933;SDS011;7560;51.364;12.384;2022-08-19T04:58:39;42.20;;;29.85;;
14933;SDS011;7560;51.364;12.384;2022-08-19T05:03:45;39.92;;;28.63;;
14933;SDS011;7560;51.364;12.384;2022-08-19T05:08:47;37.75;;;28.42;;
14933;SDS011;7560;51.364;12.384;2022-08-19T05:13:49;42.58;;;30.67;;
14933;SDS011;7560;51.364;12.384;2022-08-19T05:18:51;45.42;;;31.20;;
14933;SDS011;7560;51.364;12.384;2022-08-19T05:24:13;48.92;;;32.53;;
14933;SDS011;7560;51.364;12.384;2022-08-19T05:29:16;50.00;;;34.30;;
14933;SDS011;7560;51.364;12.384;2022-08-19T05:34:23;47.53;;;33.45;;
14933;SDS011;7560;51.364;12.384;2022-08-19T05:39:28;53.47;;;35.28;;
14933;SDS011;7560;51.364;12.384;2022-08-19T05:44:31;46.70;;;33.55;;
14933;SDS011;7560;51.364;12.384;2022-08-19T05:49:35;49.90;;;34.60;;
14933;SDS011;7560;51.364;12.384;2022-08-19T05:54:38;51.88;;;33.42;;
14933;SDS011;7560;51.364;12.384;2022-08-19T05:59:43;49.10;;;33.80;;
14933;SDS011;7560;51.364;12.384;2022-08-19T06:04:47;47.35;;;33.50;;
14933;SDS011;7560;51.364;12.384;2022-08-19T06:09:49;47.13;;;32.63;;
14933;SDS011;7560;51.364;12.384;2022-08-19T06:15:05;45.80;;;32.00;;
14933;SDS011;7560;51.364;12.384;2022-08-19T06:20:13;50.17;;;32.78;;
14933;SDS011;7560;51.364;12.384;2022-08-19T06:25:16;43.90;;;32.85;;
14933;SDS011;7560;51.364;12.384;2022-08-19T06:30:18;46.75;;;32.55;;
14933;SDS011;7560;51.364;12.384;2022-08-19T06:35:20;44.75;;;31.38;;
14933;SDS011;7560;51.364;12.384;2022-08-19T06:40:22;49.55;;;32.63;;
14933;SDS011;7560;51.364;12.384;2022-08-19T06:45:23;52.40;;;32.53;;
14933;SDS011;7560;51.364;12.384;2022-08-19T06:50:39;51.92;;;33.35;;
14933;SDS011;7560;51.364;12.384;2022-08-19T06:55:41;49.97;;;33.38;;
14933;SDS011;7560;51.364;12.384;2022-08-19T07:00:43;53.50;;;33.65;;
14933;SDS011;7560;51.364;12.384;2022-08-19T07:05:45;51.20;;;32.28;;
14933;SDS011;7560;51.364;12.384;2022-08-19T07:10:47;49.65;;;31.55;;
14933;SDS011;7560;51.364;12.384;2022-08-19T07:15:50;49.95;;;32.55;;
14933;SDS011;7560;51.364;12.384;2022-08-19T07:21:01;47.33;;;31.15;;
14933;SDS011;7560;51.364;12.384;2022-08-19T07:26:11;45.55;;;30.48;;
14933;SDS011;7560;51.364;12.384;2022-08-19T07:31:16;44.10;;;30.10;;
14933;SDS011;7560;51.364;12.384;2022-08-19T07:36:25;51.33;;;30.77;;
14933;SDS011;7560;51.364;12.384;2022-08-19T07:41:34;50.13;;;30.83;;
14933;SDS011;7560;51.364;12.384;2022-08-19T07:46:39;45.42;;;30.15;;
14933;SDS011;7560;51.364;12.384;2022-08-19T07:51:43;44.55;;;29.40;;
14933;SDS011;7560;51.364;12.384;2022-08-19T07:56:45;39.92;;;28.25;;
14933;SDS011;7560;51.364;12.384;2022-08-19T08:01:47;39.88;;;27.35;;
14933;SDS011;7560;51.364;12.384;2022-08-19T08:06:51;39.90;;;28.02;;
14933;SDS011;7560;51.364;12.384;2022-08-19T08:12:21;40.08;;;27.63;;
14933;SDS011;7560;51.364;12.384;2022-08-19T08:17:35;41.58;;;28.83;;
14933;SDS011;7560;51.364;12.384;2022-08-19T08:22:51;41.58;;;28.20;;
14933;SDS011;7560;51.364;12.384;2022-08-19T08:28:11;40.72;;;28.30;;
14933;SDS011;7560;51.364;12.384;2022-08-19T08:33:22;40.53;;;28.48;;
14933;SDS011;7560;51.364;12.384;2022-08-19T08:38:36;39.13;;;28.23;;
14933;SDS011;7560;51.364;12.384;2022-08-19T08:43:44;38.83;;;28.15;;
14933;SDS011;7560;51.364;12.384;2022-08-19T08:48:51;37.55;;;26.73;;
14933;SDS011;7560;51.364;12.384;2022-08-19T08:53:59;36.95;;;25.55;;
14933;SDS011;7560;51.364;12.384;2022-08-19T08:59:07;37.95;;;27.05;;
14933;SDS011;7560;51.364;12.384;2022-08-19T09:04:23;37.53;;;26.02;;
14933;SDS011;7560;51.364;12.384;2022-08-19T09:09:30;37.55;;;24.70;;
14933;SDS011;7560;51.364;12.384;2022-08-19T09:14:47;38.25;;;25.40;;
14933;SDS011;7560;51.364;12.384;2022-08-19T09:19:59;34.13;;;23.33;;
14933;SDS011;7560;51.364;12.384;2022-08-19T09:25:06;30.25;;;22.58;;
14933;SDS011;7560;51.364;12.384;2022-08-19T09:30:11;36.55;;;24.05;;
14933;SDS011;7560;51.364;12.384;2022-08-19T09:35:16;35.63;;;24.42;;
14933;SDS011;7560;51.364;12.384;2022-08-19T09:40:18;35.13;;;25.65;;
14933;SDS011;7560;51.364;12.384;2022-08-19T09:45:24;36.10;;;24.00;;
14933;SDS011;7560;51.364;12.384;2022-08-19T09:50:26;38.70;;;25.77;;
14933;SDS011;7560;51.364;12.384;2022-08-19T09:55:28;35.78;;;23.88;;
14933;SDS011;7560;51.364;12.384;2022-08-19T10:00:32;35.92;;;25.58;;
14933;SDS011;7560;51.364;12.384;2022-08-19T10:05:34;31.63;;;22.85;;
14933;SDS011;7560;51.364;12.384;2022-08-19T10:10:56;32.08;;;22.35;;
14933;SDS011;7560;51.364;12.384;2022-08-19T10:16:03;30.23;;;23.13;;
14933;SDS011;7560;51.364;12.384;2022-08-19T10:21:08;31.67;;;19.75;;
14933;SDS011;7560;51.364;12.384;2022-08-19T10:26:18;27.20;;;18.83;;
14933;SDS011;7560;51.364;12.384;2022-08-19T10:31:28;25.20;;;18.58;;
14933;SDS011;7560;51.364;12.384;2022-08-19T10:36:51;23.55;;;18.40;;
14933;SDS011;7560;51.364;12.384;2022-08-19T10:41:57;23.30;;;17.92;;
14933;SDS011;7560;51.364;12.384;2022-08-19T10:46:59;21.95;;;17.52;;
14933;SDS011;7560;51.364;12.384;2022-08-19T10:52:01;20.52;;;16.10;;
14933;SDS011;7560;51.364;12.384;2022-08-19T10:57:32;20.95;;;15.77;;
14933;SDS011;7560;51.364;12.384;2022-08-19T11:02:54;25.20;;;15.73;;
14933;SDS011;7560;51.364;12.384;2022-08-19T11:07:56;20.23;;;15.45;;
14933;SDS011;7560;51.364;12.384;2022-08-19T11:13:00;18.83;;;14.15;;
14933;SDS011;7560;51.364;12.384;2022-08-19T11:18:03;20.30;;;14.18;;
14933;SDS011;7560;51.364;12.384;2022-08-19T11:23:13;21.70;;;14.18;;
14933;SDS011;7560;51.364;12.384;2022-08-19T11:28:15;18.13;;;13.85;;
14933;SDS011;7560;51.364;12.384;2022-08-19T11:33:17;19.25;;;13.00;;
14933;SDS011;7560;51.364;12.384;2022-08-19T11:38:19;15.85;;;11.98;;
14933;SDS011;7560;51.364;12.384;2022-08-19T11:43:20;15.38;;;11.38;;
14933;SDS011;7560;51.364;12.384;2022-08-19T11:48:23;14.65;;;10.73;;
14933;SDS011;7560;51.364;12.384;2022-08-19T11:53:26;13.65;;;10.65;;
14933;SDS011;7560;51.364;12.384;2022-08-19T11:58:28;16.20;;;11.80;;
14933;SDS011;7560;51.364;12.384;2022-08-19T12:03:33;17.60;;;13.55;;
14933;SDS011;7560;51.364;12.384;2022-08-19T12:08:35;16.20;;;11.23;;
14933;SDS011;7560;51.364;12.384;2022-08-19T12:13:37;16.15;;;11.88;;
14933;SDS011;7560;51.364;12.384;2022-08-19T12:18:40;14.93;;;10.93;;
14933;SDS011;7560;51.364;12.384;2022-08-19T12:23:44;16.95;;;12.07;;
14933;SDS011;7560;51.364;12.384;2022-08-19T12:28:47;16.83;;;12.88;;
14933;SDS011;7560;51.364;12.384;2022-08-19T12:33:49;15.40;;;11.13;;
14933;SDS011;7560;51.364;12.384;2022-08-19T12:38:51;16.58;;;11.55;;
14933;SDS011;7560;51.364;12.384;2022-08-19T12:43:53;16.92;;;13.30;;
14933;SDS011;7560;51.364;12.384;2022-08-19T12:48:56;13.93;;;11.05;;
14933;SDS011;7560;51.364;12.384;2022-08-19T12:53:58;16.67;;;12.07;;
14933;SDS011;7560;51.364;12.384;2022-08-19T12:59:01;15.30;;;12.35;;
14933;SDS011;7560;51.364;12.384;2022-08-19T13:04:04;12.52;;;10.43;;
14933;SDS011;7560;51.364;12.384;2022-08-19T13:09:06;16.33;;;12.65;;
14933;SDS011;7560;51.364;12.384;2022-08-19T13:14:07;14.30;;;11.60;;
14933;SDS011;7560;51.364;12.384;2022-08-19T13:19:10;16.55;;;12.60;;
14933;SDS011;7560;51.364;12.384;2022-08-19T13:24:13;15.40;;;13.05;;
14933;SDS011;7560;51.364;12.384;2022-08-19T13:29:14;18.65;;;14.45;;
14933;SDS011;7560;51.364;12.384;2022-08-19T13:34:35;16.80;;;12.50;;
14933;SDS011;7560;51.364;12.384;2022-08-19T13:39:38;14.95;;;12.20;;
14933;SDS011;7560;51.364;12.384;2022-08-19T13:44:40;16.00;;;12.25;;
14933;SDS011;7560;51.364;12.384;2022-08-19T13:49:41;17.58;;;13.25;;
14933;SDS011;7560;51.364;12.384;2022-08-19T13:54:43;14.50;;;11.60;;
14933;SDS011;7560;51.364;12.384;2022-08-19T13:59:45;14.60;;;10.95;;
14933;SDS011;7560;51.364;12.384;2022-08-19T14:04:47;13.57;;;10.90;;
14933;SDS011;7560;51.364;12.384;2022-08-19T14:09:49;14.40;;;11.00;;
14933;SDS011;7560;51.364;12.384;2022-08-19T14:14:51;16.63;;;12.68;;
14933;SDS011;7560;51.364;12.384;2022-08-19T14:19:59;13.98;;;11.20;;
14933;SDS011;7560;51.364;12.384;2022-08-19T14:25:12;16.25;;;11.73;;
14933;SDS011;7560;51.364;12.384;2022-08-19T14:30:19;15.18;;;10.57;;
14933;SDS011;7560;51.364;12.384;2022-08-19T14:35:24;13.32;;;9.88;;
14933;SDS011;7560;51.364;12.384;2022-08-19T14:40:28;13.77;;;9.80;;
14933;SDS011;7560;51.364;12.384;2022-08-19T14:45:31;13.80;;;10.38;;
14933;SDS011;7560;51.364;12.384;2022-08-19T14:50:36;11.88;;;9.32;;
14933;SDS011;7560;51.364;12.384;2022-08-19T14:55:42;11.23;;;9.48;;
14933;SDS011;7560;51.364;12.384;2022-08-19T15:00:45;10.05;;;8.82;;
14933;SDS011;7560;51.364;12.384;2022-08-19T15:05:49;12.75;;;9.15;;
14933;SDS011;7560;51.364;12.384;2022-08-19T15:10:51;11.95;;;8.50;;
14933;SDS011;7560;51.364;12.384;2022-08-19T15:15:53;10.43;;;8.95;;
14933;SDS011;7560;51.364;12.384;2022-08-19T15:20:55;10.88;;;8.15;;
14933;SDS011;7560;51.364;12.384;2022-08-19T15:26:02;11.40;;;8.98;;
14933;SDS011;7560;51.364;12.384;2022-08-19T15:31:21;16.35;;;12.43;;
14933;SDS011;7560;51.364;12.384;2022-08-19T15:36:29;20.85;;;14.55;;
14933;SDS011;7560;51.364;12.384;2022-08-19T15:41:31;17.63;;;13.15;;
14933;SDS011;7560;51.364;12.384;2022-08-19T15:46:34;19.83;;;13.57;;
14933;SDS011;7560;51.364;12.384;2022-08-19T15:51:38;20.23;;;13.60;;
14933;SDS011;7560;51.364;12.384;2022-08-19T15:56:43;19.83;;;13.55;;
14933;SDS011;7560;51.364;12.384;2022-08-19T16:02:03;18.40;;;14.50;;
14933;SDS011;7560;51.364;12.384;2022-08-19T16:07:32;17.92;;;14.15;;
14933;SDS011;7560;51.364;12.384;2022-08-19T16:12:34;18.25;;;14.35;;
14933;SDS011;7560;51.364;12.384;2022-08-19T16:17:36;16.80;;;13.52;;
14933;SDS011;7560;51.364;12.384;2022-08-19T16:22:38;18.00;;;13.85;;
14933;SDS011;7560;51.364;12.384;2022-08-19T16:27:40;20.52;;;13.77;;
14933;SDS011;7560;51.364;12.384;2022-08-19T16:33:02;23.65;;;16.60;;
14933;SDS011;7560;51.364;12.384;2022-08-19T16:38:04;19.25;;;14.27;;
14933;SDS011;7560;51.364;12.384;2022-08-19T16:43:07;16.98;;;13.77;;
14933;SDS011;7560;51.364;12.384;2022-08-19T16:48:10;18.20;;;13.65;;
14933;SDS011;7560;51.364;12.384;2022-08-19T16:53:12;17.35;;;12.75;;
14933;SDS011;7560;51.364;12.384;2022-08-19T16:58:16;15.50;;;12.35;;
14933;SDS011;7560;51.364;12.384;2022-08-19T17:03:28;13.55;;;10.82;;
14933;SDS011;7560;51.364;12.384;2022-08-19T17:08:37;17.30;;;12.15;;
14933;SDS011;7560;51.364;12.384;2022-08-19T17:13:38;14.68;;;12.50;;
14933;SDS011;7560;51.364;12.384;2022-08-19T17:18:43;17.42;;;12.35;;
14933;SDS011;7560;51.364;12.384;2022-08-19T17:23:45;15.65;;;11.95;;
14933;SDS011;7560;51.364;12.384;2022-08-19T17:28:48;14.50;;;12.52;;
14933;SDS011;7560;51.364;12.384;2022-08-19T17:33:52;17.17;;;13.32;;
14933;SDS011;7560;51.364;12.384;2022-08-19T17:38:55;17.58;;;13.18;;
14933;SDS011;7560;51.364;12.384;2022-08-19T17:44:01;18.05;;;13.02;;
14933;SDS011;7560;51.364;12.384;2022-08-19T17:49:03;14.40;;;12.15;;
14933;SDS011;7560;51.364;12.384;2022-08-19T17:54:06;17.25;;;12.80;;
14933;SDS011;7560;51.364;12.384;2022-08-19T17:59:09;31.08;;;18.83;;
14933;SDS011;7560;51.364;12.384;2022-08-19T18:04:14;15.63;;;12.32;;
14933;SDS011;7560;51.364;12.384;2022-08-19T18:09:17;17.48;;;12.18;;
14933;SDS011;7560;51.364;12.384;2022-08-19T18:14:21;20.70;;;13.95;;
14933;SDS011;7560;51.364;12.384;2022-08-19T18:19:34;21.02;;;13.73;;
14933;SDS011;7560;51.364;12.384;2022-08-19T18:24:42;16.65;;;13.48;;
14933;SDS011;7560;51.364;12.384;2022-08-19T18:29:46;17.90;;;12.25;;
14933;SDS011;7560;51.364;12.384;2022-08-19T18:34:48;14.90;;;12.13;;
14933;SDS011;7560;51.364;12.384;2022-08-19T18:39:49;16.92;;;12.02;;
14933;SDS011;7560;51.364;12.384;2022-08-19T18:45:10;14.80;;;11.27;;
14933;SDS011;7560;51.364;12.384;2022-08-19T18:50:31;13.25;;;11.57;;
14933;SDS011;7560;51.364;12.384;2022-08-19T18:55:33;14.00;;;12.50;;
14933;SDS011;7560;51.364;12.384;2022-08-19T19:00:34;16.55;;;13.52;;
14933;SDS011;7560;51.364;12.384;2022-08-19T19:05:37;16.55;;;14.05;;
14933;SDS011;7560;51.364;12.384;2022-08-19T19:10:40;15.75;;;13.68;;
14933;SDS011;7560;51.364;12.384;2022-08-19T19:15:42;14.95;;;13.35;;
14933;SDS011;7560;51.364;12.384;2022-08-19T19:20:44;25.92;;;18.48;;
14933;SDS011;7560;51.364;12.384;2022-08-19T19:25:45;16.58;;;13.38;;
14933;SDS011;7560;51.364;12.384;2022-08-19T19:30:52;16.40;;;13.85;;
14933;SDS011;7560;51.364;12.384;2022-08-19T19:35:58;16.85;;;13.63;;
14933;SDS011;7560;51.364;12.384;2022-08-19T19:41:00;15.93;;;13.68;;
14933;SDS011;7560;51.364;12.384;2022-08-19T19:46:02;17.63;;;14.48;;
14933;SDS011;7560;51.364;12.384;2022-08-19T19:51:07;16.75;;;13.52;;
14933;SDS011;7560;51.364;12.384;2022-08-19T19:56:10;17.83;;;15.02;;
14933;SDS011;7560;51.364;12.384;2022-08-19T20:01:13;20.45;;;15.65;;
14933;SDS011;7560;51.364;12.384;2022-08-19T20:06:24;18.20;;;15.60;;
14933;SDS011;7560;51.364;12.384;2022-08-19T20:11:31;22.08;;;15.90;;
14933;SDS011;7560;51.364;12.384;2022-08-19T20:16:36;18.70;;;15.13;;
14933;SDS011;7560;51.364;12.384;2022-08-19T20:21:41;17.58;;;15.35;;
14933;SDS011;7560;51.364;12.384;2022-08-19T20:26:51;19.23;;;15.50;;
14933;SDS011;7560;51.364;12.384;2022-08-19T20:31:54;17.55;;;14.90;;
14933;SDS011;7560;51.364;12.384;2022-08-19T20:36:59;18.70;;;14.93;;
14933;SDS011;7560;51.364;12.384;2022-08-19T20:42:01;21.17;;;15.52;;
14933;SDS011;7560;51.364;12.384;2022-08-19T20:47:03;19.70;;;15.32;;
14933;SDS011;7560;51.364;12.384;2022-08-19T20:52:05;19.55;;;15.80;;
14933;SDS011;7560;51.364;12.384;2022-08-19T20:57:07;23.42;;;18.02;;
14933;SDS011;7560;51.364;12.384;2022-08-19T21:02:09;23.38;;;18.60;;
14933;SDS011;7560;51.364;12.384;2022-08-19T21:07:11;21.15;;;17.80;;
14933;SDS011;7560;51.364;12.384;2022-08-19T21:12:13;23.52;;;17.10;;
14933;SDS011;7560;51.364;12.384;2022-08-19T21:17:15;21.35;;;16.73;;
14933;SDS011;7560;51.364;12.384;2022-08-19T21:22:17;25.20;;;17.92;;
14933;SDS011;7560;51.364;12.384;2022-08-19T21:27:22;25.60;;;18.52;;
14933;SDS011;7560;51.364;12.384;2022-08-19T21:32:24;20.88;;;17.25;;
14933;SDS011;7560;51.364;12.384;2022-08-19T21:37:26;22.67;;;17.90;;
14933;SDS011;7560;51.364;12.384;2022-08-19T21:42:28;22.50;;;17.67;;
14933;SDS011;7560;51.364;12.384;2022-08-19T21:47:30;23.88;;;17.02;;
14933;SDS011;7560;51.364;12.384;2022-08-19T21:52:32;22.52;;;16.88;;
14933;SDS011;7560;51.364;12.384;2022-08-19T21:57:34;21.88;;;16.80;;
14933;SDS011;7560;51.364;12.384;2022-08-19T22:02:36;21.48;;;16.70;;
14933;SDS011;7560;51.364;12.384;2022-08-19T22:07:39;23.20;;;17.70;;
14933;SDS011;7560;51.364;12.384;2022-08-19T22:12:43;24.05;;;17.83;;
14933;SDS011;7560;51.364;12.384;2022-08-19T22:17:51;24.20;;;16.92;;
14933;SDS011;7560;51.364;12.384;2022-08-19T22:22:55;22.58;;;17.13;;
14933;SDS011;7560;51.364;12.384;2022-08-19T22:28:03;24.75;;;18.02;;
14933;SDS011;7560;51.364;12.384;2022-08-19T22:33:13;23.65;;;17.20;;
14933;SDS011;7560;51.364;12.384;2022-08-19T22:38:17;22.63;;;17.17;;
14933;SDS011;7560;51.364;12.384;2022-08-19T22:43:21;23.77;;;16.35;;
14933;SDS011;7560;51.364;12.384;2022-08-19T22:48:26;22.10;;;16.58;;
14933;SDS011;7560;51.364;12.384;2022-08-19T22:53:30;23.45;;;16.92;;
14933;SDS011;7560;51.364;12.384;2022-08-19T22:58:33;23.55;;;16.67;;
14933;SDS011;7560;51.364;12.384;2022-08-19T23:03:35;22.35;;;16.05;;
14933;SDS011;7560;51.364;12.384;2022-08-19T23:08:37;20.95;;;15.65;;
14933;SDS011;7560;51.364;12.384;2022-08-19T23:13:40;25.35;;;17.63;;
14933;SDS011;7560;51.364;12.384;2022-08-19T23:18:42;24.50;;;16.73;;
14933;SDS011;7560;51.364;12.384;2022-08-19T23:23:45;26.33;;;18.65;;
14933;SDS011;7560;51.364;12.384;2022-08-19T23:28:47;24.92;;;17.42;;
14933;SDS011;7560;51.364;12.384;2022-08-19T23:34:08;26.58;;;18.52;;
14933;SDS011;7560;51.364;12.384;2022-08-19T23:39:09;26.00;;;18.13;;
14933;SDS011;7560;51.364;12.384;2022-08-19T23:44:11;27.85;;;19.27;;
14933;SDS011;7560;51.364;12.384;2022-08-19T23:49:15;30.05;;;19.63;;
14933;SDS011;7560;51.364;12.384;2022-08-19T23:54:16;27.70;;;19.45;;
14933;SDS011;7560;51.364;12.384;2022-08-19T23:59:18;27.65;;;19.50;;
